sensor_id;sensor_type;location;lat;lon;timestamp;P1;durP1;ratioP1;P2;durP2;ratioP2
18732;SDS011;9495;51.210;2.934;2023-07-28T00:00:15;16.10;;;5.57;;
18732;SDS011;9495;51.210;2.934;2023-07-28T00:02:44;16.55;;;5.40;;
18732;SDS011;9495;51.210;2.934;2023-07-28T00:05:13;13.70;;;5.45;;
18732;SDS011;9495;51.210;2.934;2023-07-28T00:07:41;18.65;;;5.55;;
18732;SDS011;9495;51.210;2.934;2023-07-28T00:10:10;13.38;;;5.93;;
18732;SDS011;9495;51.210;2.934;2023-07-28T00:12:39;17.95;;;6.63;;
18732;SDS011;9495;51.210;2.934;2023-07-28T00:15:09;19.92;;;6.60;;
18732;SDS011;9495;51.210;2.934;2023-07-28T00:17:38;18.45;;;6.75;;
18732;SDS011;9495;51.210;2.934;2023-07-28T00:20:06;13.50;;;6.50;;
18732;SDS011;9495;51.210;2.934;2023-07-28T00:22:35;19.10;;;7.55;;
18732;SDS011;9495;51.210;2.934;2023-07-28T00:25:05;17.70;;;7.38;;
18732;SDS011;9495;51.210;2.934;2023-07-28T00:27:34;15.68;;;7.97;;
18732;SDS011;9495;51.210;2.934;2023-07-28T00:30:02;15.63;;;7.65;;
18732;SDS011;9495;51.210;2.934;2023-07-28T00:32:32;18.05;;;8.07;;
18732;SDS011;9495;51.210;2.934;2023-07-28T00:35:01;14.93;;;8.38;;
18732;SDS011;9495;51.210;2.934;2023-07-28T00:37:29;18.65;;;8.88;;
18732;SDS011;9495;51.210;2.934;2023-07-28T00:39:59;18.67;;;8.50;;
18732;SDS011;9495;51.210;2.934;2023-07-28T00:42:27;18.10;;;7.95;;
18732;SDS011;9495;51.210;2.934;2023-07-28T00:44:56;19.27;;;8.40;;
18732;SDS011;9495;51.210;2.934;2023-07-28T00:47:25;17.50;;;7.80;;
18732;SDS011;9495;51.210;2.934;2023-07-28T00:49:55;13.63;;;7.95;;
18732;SDS011;9495;51.210;2.934;2023-07-28T00:52:23;14.93;;;8.20;;
18732;SDS011;9495;51.210;2.934;2023-07-28T00:54:52;14.05;;;7.95;;
18732;SDS011;9495;51.210;2.934;2023-07-28T00:57:21;15.88;;;7.88;;
18732;SDS011;9495;51.210;2.934;2023-07-28T00:59:49;17.08;;;7.43;;
18732;SDS011;9495;51.210;2.934;2023-07-28T01:02:18;13.95;;;7.47;;
18732;SDS011;9495;51.210;2.934;2023-07-28T01:04:47;17.55;;;7.55;;
18732;SDS011;9495;51.210;2.934;2023-07-28T01:07:21;16.38;;;7.15;;
18732;SDS011;9495;51.210;2.934;2023-07-28T01:09:57;16.00;;;6.82;;
18732;SDS011;9495;51.210;2.934;2023-07-28T01:12:30;15.00;;;6.28;;
18732;SDS011;9495;51.210;2.934;2023-07-28T01:14:58;18.38;;;5.97;;
18732;SDS011;9495;51.210;2.934;2023-07-28T01:17:27;22.38;;;6.47;;
18732;SDS011;9495;51.210;2.934;2023-07-28T01:19:56;17.48;;;5.93;;
18732;SDS011;9495;51.210;2.934;2023-07-28T01:22:35;18.08;;;5.38;;
18732;SDS011;9495;51.210;2.934;2023-07-28T01:25:17;13.05;;;4.75;;
18732;SDS011;9495;51.210;2.934;2023-07-28T01:27:53;15.38;;;4.88;;
18732;SDS011;9495;51.210;2.934;2023-07-28T01:30:23;14.40;;;4.80;;
18732;SDS011;9495;51.210;2.934;2023-07-28T01:32:53;16.42;;;4.72;;
18732;SDS011;9495;51.210;2.934;2023-07-28T01:35:23;12.50;;;4.38;;
18732;SDS011;9495;51.210;2.934;2023-07-28T01:37:53;14.43;;;4.70;;
18732;SDS011;9495;51.210;2.934;2023-07-28T01:40:22;15.77;;;4.63;;
18732;SDS011;9495;51.210;2.934;2023-07-28T01:42:51;19.52;;;4.38;;
18732;SDS011;9495;51.210;2.934;2023-07-28T01:45:20;15.80;;;4.35;;
18732;SDS011;9495;51.210;2.934;2023-07-28T01:47:49;15.50;;;4.47;;
18732;SDS011;9495;51.210;2.934;2023-07-28T01:50:17;22.10;;;4.97;;
18732;SDS011;9495;51.210;2.934;2023-07-28T01:52:46;16.95;;;4.43;;
18732;SDS011;9495;51.210;2.934;2023-07-28T01:55:15;11.80;;;4.32;;
18732;SDS011;9495;51.210;2.934;2023-07-28T01:57:50;16.70;;;4.45;;
18732;SDS011;9495;51.210;2.934;2023-07-28T02:00:22;17.13;;;4.43;;
18732;SDS011;9495;51.210;2.934;2023-07-28T02:02:51;12.15;;;4.15;;
18732;SDS011;9495;51.210;2.934;2023-07-28T02:05:21;13.25;;;4.22;;
18732;SDS011;9495;51.210;2.934;2023-07-28T02:07:49;14.77;;;4.35;;
18732;SDS011;9495;51.210;2.934;2023-07-28T02:10:18;16.92;;;4.47;;
18732;SDS011;9495;51.210;2.934;2023-07-28T02:12:46;13.90;;;4.10;;
18732;SDS011;9495;51.210;2.934;2023-07-28T02:15:15;13.30;;;3.83;;
18732;SDS011;9495;51.210;2.934;2023-07-28T02:17:45;11.07;;;3.70;;
18732;SDS011;9495;51.210;2.934;2023-07-28T02:20:13;16.13;;;4.15;;
18732;SDS011;9495;51.210;2.934;2023-07-28T02:22:42;11.98;;;3.92;;
18732;SDS011;9495;51.210;2.934;2023-07-28T02:25:11;15.98;;;4.15;;
18732;SDS011;9495;51.210;2.934;2023-07-28T02:27:39;11.90;;;3.88;;
18732;SDS011;9495;51.210;2.934;2023-07-28T02:30:08;12.43;;;3.90;;
18732;SDS011;9495;51.210;2.934;2023-07-28T02:32:37;15.68;;;4.25;;
18732;SDS011;9495;51.210;2.934;2023-07-28T02:35:07;14.73;;;4.82;;
18732;SDS011;9495;51.210;2.934;2023-07-28T02:37:37;18.13;;;4.68;;
18732;SDS011;9495;51.210;2.934;2023-07-28T02:40:05;12.77;;;3.85;;
18732;SDS011;9495;51.210;2.934;2023-07-28T02:42:35;11.68;;;4.07;;
18732;SDS011;9495;51.210;2.934;2023-07-28T02:45:04;14.55;;;4.15;;
18732;SDS011;9495;51.210;2.934;2023-07-28T02:47:33;14.38;;;3.92;;
18732;SDS011;9495;51.210;2.934;2023-07-28T02:50:01;13.50;;;4.10;;
18732;SDS011;9495;51.210;2.934;2023-07-28T02:52:32;14.15;;;3.92;;
18732;SDS011;9495;51.210;2.934;2023-07-28T02:55:00;15.10;;;4.60;;
18732;SDS011;9495;51.210;2.934;2023-07-28T02:57:29;10.70;;;4.00;;
18732;SDS011;9495;51.210;2.934;2023-07-28T02:59:57;10.65;;;4.00;;
18732;SDS011;9495;51.210;2.934;2023-07-28T03:02:26;14.10;;;4.82;;
18732;SDS011;9495;51.210;2.934;2023-07-28T03:04:55;11.40;;;4.38;;
18732;SDS011;9495;51.210;2.934;2023-07-28T03:07:23;11.82;;;4.20;;
18732;SDS011;9495;51.210;2.934;2023-07-28T03:09:53;10.45;;;4.93;;
18732;SDS011;9495;51.210;2.934;2023-07-28T03:12:22;15.55;;;5.28;;
18732;SDS011;9495;51.210;2.934;2023-07-28T03:14:50;18.20;;;5.65;;
18732;SDS011;9495;51.210;2.934;2023-07-28T03:17:19;12.35;;;5.00;;
18732;SDS011;9495;51.210;2.934;2023-07-28T03:19:47;13.65;;;5.00;;
18732;SDS011;9495;51.210;2.934;2023-07-28T03:22:16;20.55;;;4.57;;
18732;SDS011;9495;51.210;2.934;2023-07-28T03:24:44;12.15;;;5.45;;
18732;SDS011;9495;51.210;2.934;2023-07-28T03:27:15;14.45;;;5.72;;
18732;SDS011;9495;51.210;2.934;2023-07-28T03:29:44;15.57;;;6.22;;
18732;SDS011;9495;51.210;2.934;2023-07-28T03:32:13;17.08;;;6.72;;
18732;SDS011;9495;51.210;2.934;2023-07-28T03:34:41;13.27;;;6.72;;
18732;SDS011;9495;51.210;2.934;2023-07-28T03:37:10;14.02;;;7.22;;
18732;SDS011;9495;51.210;2.934;2023-07-28T03:39:38;15.05;;;7.20;;
18732;SDS011;9495;51.210;2.934;2023-07-28T03:42:07;21.98;;;8.43;;
18732;SDS011;9495;51.210;2.934;2023-07-28T03:44:37;19.83;;;8.88;;
18732;SDS011;9495;51.210;2.934;2023-07-28T03:47:08;20.65;;;10.38;;
18732;SDS011;9495;51.210;2.934;2023-07-28T03:49:36;21.77;;;10.32;;
18732;SDS011;9495;51.210;2.934;2023-07-28T03:52:05;20.75;;;11.15;;
18732;SDS011;9495;51.210;2.934;2023-07-28T03:54:33;24.40;;;12.05;;
18732;SDS011;9495;51.210;2.934;2023-07-28T03:57:02;25.92;;;13.18;;
18732;SDS011;9495;51.210;2.934;2023-07-28T03:59:30;27.88;;;14.13;;
18732;SDS011;9495;51.210;2.934;2023-07-28T04:02:00;30.75;;;14.80;;
18732;SDS011;9495;51.210;2.934;2023-07-28T04:04:29;30.27;;;15.70;;
18732;SDS011;9495;51.210;2.934;2023-07-28T04:06:58;28.58;;;16.08;;
18732;SDS011;9495;51.210;2.934;2023-07-28T04:09:26;31.95;;;18.38;;
18732;SDS011;9495;51.210;2.934;2023-07-28T04:11:55;31.67;;;18.70;;
18732;SDS011;9495;51.210;2.934;2023-07-28T04:14:23;34.75;;;19.30;;
18732;SDS011;9495;51.210;2.934;2023-07-28T04:16:52;31.48;;;18.00;;
18732;SDS011;9495;51.210;2.934;2023-07-28T04:19:22;29.02;;;16.02;;
18732;SDS011;9495;51.210;2.934;2023-07-28T04:21:50;35.13;;;16.42;;
18732;SDS011;9495;51.210;2.934;2023-07-28T04:24:19;35.70;;;16.73;;
18732;SDS011;9495;51.210;2.934;2023-07-28T04:26:47;26.45;;;16.35;;
18732;SDS011;9495;51.210;2.934;2023-07-28T04:29:16;32.83;;;17.10;;
18732;SDS011;9495;51.210;2.934;2023-07-28T04:31:45;28.00;;;15.77;;
18732;SDS011;9495;51.210;2.934;2023-07-28T04:34:13;22.60;;;14.13;;
18732;SDS011;9495;51.210;2.934;2023-07-28T04:36:43;22.83;;;14.60;;
18732;SDS011;9495;51.210;2.934;2023-07-28T04:39:11;24.27;;;13.45;;
18732;SDS011;9495;51.210;2.934;2023-07-28T04:41:40;23.30;;;13.77;;
18732;SDS011;9495;51.210;2.934;2023-07-28T04:44:08;19.88;;;12.57;;
18732;SDS011;9495;51.210;2.934;2023-07-28T04:46:37;24.08;;;12.75;;
18732;SDS011;9495;51.210;2.934;2023-07-28T04:49:06;21.17;;;12.35;;
18732;SDS011;9495;51.210;2.934;2023-07-28T04:51:34;19.38;;;12.70;;
18732;SDS011;9495;51.210;2.934;2023-07-28T04:54:04;20.65;;;11.45;;
18732;SDS011;9495;51.210;2.934;2023-07-28T04:56:33;22.45;;;11.70;;
18732;SDS011;9495;51.210;2.934;2023-07-28T04:59:02;20.20;;;11.23;;
18732;SDS011;9495;51.210;2.934;2023-07-28T05:01:31;21.83;;;11.63;;
18732;SDS011;9495;51.210;2.934;2023-07-28T05:04:00;20.70;;;11.93;;
18732;SDS011;9495;51.210;2.934;2023-07-28T05:06:29;28.63;;;13.80;;
18732;SDS011;9495;51.210;2.934;2023-07-28T05:08:57;33.85;;;16.73;;
18732;SDS011;9495;51.210;2.934;2023-07-28T05:11:27;32.08;;;18.52;;
18732;SDS011;9495;51.210;2.934;2023-07-28T05:13:55;35.75;;;20.08;;
18732;SDS011;9495;51.210;2.934;2023-07-28T05:16:24;38.13;;;19.38;;
18732;SDS011;9495;51.210;2.934;2023-07-28T05:18:53;33.13;;;18.75;;
18732;SDS011;9495;51.210;2.934;2023-07-28T05:21:21;32.38;;;17.90;;
18732;SDS011;9495;51.210;2.934;2023-07-28T05:23:50;31.17;;;17.98;;
18732;SDS011;9495;51.210;2.934;2023-07-28T05:26:19;32.08;;;16.23;;
18732;SDS011;9495;51.210;2.934;2023-07-28T05:28:48;28.58;;;17.02;;
18732;SDS011;9495;51.210;2.934;2023-07-28T05:31:17;32.20;;;17.60;;
18732;SDS011;9495;51.210;2.934;2023-07-28T05:33:46;31.77;;;17.85;;
18732;SDS011;9495;51.210;2.934;2023-07-28T05:36:15;37.35;;;18.15;;
18732;SDS011;9495;51.210;2.934;2023-07-28T05:38:44;24.88;;;15.45;;
18732;SDS011;9495;51.210;2.934;2023-07-28T05:41:12;25.92;;;14.23;;
18732;SDS011;9495;51.210;2.934;2023-07-28T05:43:41;26.25;;;12.63;;
18732;SDS011;9495;51.210;2.934;2023-07-28T05:46:11;26.15;;;13.35;;
18732;SDS011;9495;51.210;2.934;2023-07-28T05:48:40;25.77;;;11.93;;
18732;SDS011;9495;51.210;2.934;2023-07-28T05:51:08;21.08;;;13.18;;
18732;SDS011;9495;51.210;2.934;2023-07-28T05:53:37;23.20;;;14.35;;
18732;SDS011;9495;51.210;2.934;2023-07-28T05:56:05;31.95;;;16.55;;
18732;SDS011;9495;51.210;2.934;2023-07-28T05:58:34;37.65;;;17.92;;
18732;SDS011;9495;51.210;2.934;2023-07-28T06:01:02;32.60;;;18.40;;
18732;SDS011;9495;51.210;2.934;2023-07-28T06:03:32;31.98;;;17.13;;
18732;SDS011;9495;51.210;2.934;2023-07-28T06:06:01;37.13;;;20.45;;
18732;SDS011;9495;51.210;2.934;2023-07-28T06:08:30;37.50;;;21.02;;
18732;SDS011;9495;51.210;2.934;2023-07-28T06:10:58;32.45;;;21.20;;
18732;SDS011;9495;51.210;2.934;2023-07-28T06:13:27;32.60;;;20.88;;
18732;SDS011;9495;51.210;2.934;2023-07-28T06:15:55;32.10;;;19.25;;
18732;SDS011;9495;51.210;2.934;2023-07-28T06:18:24;34.00;;;19.75;;
18732;SDS011;9495;51.210;2.934;2023-07-28T06:20:54;34.40;;;19.38;;
18732;SDS011;9495;51.210;2.934;2023-07-28T06:23:23;33.80;;;18.13;;
18732;SDS011;9495;51.210;2.934;2023-07-28T06:25:51;31.33;;;16.15;;
18732;SDS011;9495;51.210;2.934;2023-07-28T06:28:21;30.58;;;17.60;;
18732;SDS011;9495;51.210;2.934;2023-07-28T06:30:53;35.15;;;17.65;;
18732;SDS011;9495;51.210;2.934;2023-07-28T06:33:22;32.65;;;17.63;;
18732;SDS011;9495;51.210;2.934;2023-07-28T06:35:50;29.55;;;17.52;;
18732;SDS011;9495;51.210;2.934;2023-07-28T06:38:20;34.13;;;19.35;;
18732;SDS011;9495;51.210;2.934;2023-07-28T06:40:48;36.83;;;19.75;;
18732;SDS011;9495;51.210;2.934;2023-07-28T06:43:17;42.85;;;20.83;;
18732;SDS011;9495;51.210;2.934;2023-07-28T06:45:46;35.08;;;19.98;;
18732;SDS011;9495;51.210;2.934;2023-07-28T06:48:17;42.08;;;22.25;;
18732;SDS011;9495;51.210;2.934;2023-07-28T06:50:46;45.15;;;22.88;;
18732;SDS011;9495;51.210;2.934;2023-07-28T06:53:15;41.17;;;21.77;;
18732;SDS011;9495;51.210;2.934;2023-07-28T06:55:45;48.67;;;22.38;;
18732;SDS011;9495;51.210;2.934;2023-07-28T06:58:14;49.00;;;22.15;;
18732;SDS011;9495;51.210;2.934;2023-07-28T07:00:42;50.72;;;22.48;;
18732;SDS011;9495;51.210;2.934;2023-07-28T07:03:12;46.20;;;21.30;;
18732;SDS011;9495;51.210;2.934;2023-07-28T07:05:40;41.85;;;20.85;;
18732;SDS011;9495;51.210;2.934;2023-07-28T07:08:10;39.22;;;20.25;;
18732;SDS011;9495;51.210;2.934;2023-07-28T07:10:38;41.72;;;19.58;;
18732;SDS011;9495;51.210;2.934;2023-07-28T07:13:08;44.30;;;19.10;;
18732;SDS011;9495;51.210;2.934;2023-07-28T07:15:38;34.60;;;19.15;;
18732;SDS011;9495;51.210;2.934;2023-07-28T07:18:08;36.58;;;17.55;;
18732;SDS011;9495;51.210;2.934;2023-07-28T07:20:37;34.53;;;18.00;;
18732;SDS011;9495;51.210;2.934;2023-07-28T07:23:05;34.63;;;16.08;;
18732;SDS011;9495;51.210;2.934;2023-07-28T07:25:34;25.98;;;13.88;;
18732;SDS011;9495;51.210;2.934;2023-07-28T07:28:03;22.98;;;12.85;;
18732;SDS011;9495;51.210;2.934;2023-07-28T07:30:34;21.23;;;11.68;;
18732;SDS011;9495;51.210;2.934;2023-07-28T07:33:02;22.88;;;11.82;;
18732;SDS011;9495;51.210;2.934;2023-07-28T07:35:35;23.98;;;12.18;;
18732;SDS011;9495;51.210;2.934;2023-07-28T07:38:04;18.23;;;9.85;;
18732;SDS011;9495;51.210;2.934;2023-07-28T07:40:35;15.77;;;8.80;;
18732;SDS011;9495;51.210;2.934;2023-07-28T07:43:04;17.77;;;10.15;;
18732;SDS011;9495;51.210;2.934;2023-07-28T07:45:34;21.13;;;9.73;;
18732;SDS011;9495;51.210;2.934;2023-07-28T07:48:02;14.68;;;9.27;;
18732;SDS011;9495;51.210;2.934;2023-07-28T07:50:31;19.10;;;11.68;;
18732;SDS011;9495;51.210;2.934;2023-07-28T07:53:00;19.23;;;10.70;;
18732;SDS011;9495;51.210;2.934;2023-07-28T07:55:28;15.40;;;9.77;;
18732;SDS011;9495;51.210;2.934;2023-07-28T07:57:57;16.35;;;10.70;;
18732;SDS011;9495;51.210;2.934;2023-07-28T08:00:26;17.60;;;9.30;;
18732;SDS011;9495;51.210;2.934;2023-07-28T08:02:56;14.45;;;8.45;;
18732;SDS011;9495;51.210;2.934;2023-07-28T08:05:24;11.18;;;7.32;;
18732;SDS011;9495;51.210;2.934;2023-07-28T08:07:54;14.65;;;7.78;;
18732;SDS011;9495;51.210;2.934;2023-07-28T08:10:23;12.50;;;7.20;;
18732;SDS011;9495;51.210;2.934;2023-07-28T08:12:51;12.95;;;6.47;;
18732;SDS011;9495;51.210;2.934;2023-07-28T08:15:20;9.57;;;6.28;;
18732;SDS011;9495;51.210;2.934;2023-07-28T08:17:49;12.13;;;5.93;;
18732;SDS011;9495;51.210;2.934;2023-07-28T08:20:18;8.70;;;4.97;;
18732;SDS011;9495;51.210;2.934;2023-07-28T08:22:47;11.35;;;5.65;;
18732;SDS011;9495;51.210;2.934;2023-07-28T08:25:16;10.40;;;5.97;;
18732;SDS011;9495;51.210;2.934;2023-07-28T08:27:44;7.10;;;5.47;;
18732;SDS011;9495;51.210;2.934;2023-07-28T08:30:13;7.93;;;5.78;;
18732;SDS011;9495;51.210;2.934;2023-07-28T08:32:42;6.85;;;4.60;;
18732;SDS011;9495;51.210;2.934;2023-07-28T08:35:11;8.90;;;5.22;;
18732;SDS011;9495;51.210;2.934;2023-07-28T08:37:41;8.25;;;4.75;;
18732;SDS011;9495;51.210;2.934;2023-07-28T08:40:10;7.30;;;4.05;;
18732;SDS011;9495;51.210;2.934;2023-07-28T08:42:39;5.82;;;3.30;;
18732;SDS011;9495;51.210;2.934;2023-07-28T08:45:09;5.22;;;3.10;;
18732;SDS011;9495;51.210;2.934;2023-07-28T08:47:37;3.35;;;2.53;;
18732;SDS011;9495;51.210;2.934;2023-07-28T08:50:06;3.05;;;2.33;;
18732;SDS011;9495;51.210;2.934;2023-07-28T08:52:35;5.63;;;2.60;;
18732;SDS011;9495;51.210;2.934;2023-07-28T08:55:05;6.18;;;2.83;;
18732;SDS011;9495;51.210;2.934;2023-07-28T08:57:34;4.63;;;2.47;;
18732;SDS011;9495;51.210;2.934;2023-07-28T09:00:09;3.50;;;2.53;;
18732;SDS011;9495;51.210;2.934;2023-07-28T09:02:41;5.00;;;2.60;;
18732;SDS011;9495;51.210;2.934;2023-07-28T09:05:16;4.78;;;2.55;;
18732;SDS011;9495;51.210;2.934;2023-07-28T09:07:46;3.83;;;2.63;;
18732;SDS011;9495;51.210;2.934;2023-07-28T09:10:16;3.67;;;2.55;;
18732;SDS011;9495;51.210;2.934;2023-07-28T09:12:45;4.78;;;2.83;;
18732;SDS011;9495;51.210;2.934;2023-07-28T09:15:14;9.65;;;3.33;;
18732;SDS011;9495;51.210;2.934;2023-07-28T09:17:43;3.65;;;3.13;;
18732;SDS011;9495;51.210;2.934;2023-07-28T09:20:13;5.60;;;2.70;;
18732;SDS011;9495;51.210;2.934;2023-07-28T09:22:43;3.30;;;2.17;;
18732;SDS011;9495;51.210;2.934;2023-07-28T09:25:12;3.75;;;2.20;;
18732;SDS011;9495;51.210;2.934;2023-07-28T09:27:49;19.65;;;3.05;;
18732;SDS011;9495;51.210;2.934;2023-07-28T09:30:18;3.45;;;1.70;;
18732;SDS011;9495;51.210;2.934;2023-07-28T09:32:48;4.57;;;2.10;;
18732;SDS011;9495;51.210;2.934;2023-07-28T09:35:18;11.45;;;1.70;;
18732;SDS011;9495;51.210;2.934;2023-07-28T09:37:48;13.50;;;1.83;;
18732;SDS011;9495;51.210;2.934;2023-07-28T09:40:19;2.03;;;1.17;;
18732;SDS011;9495;51.210;2.934;2023-07-28T09:42:51;2.33;;;1.10;;
18732;SDS011;9495;51.210;2.934;2023-07-28T09:45:22;6.03;;;1.27;;
18732;SDS011;9495;51.210;2.934;2023-07-28T09:48:04;3.63;;;1.40;;
18732;SDS011;9495;51.210;2.934;2023-07-28T09:50:36;4.90;;;1.42;;
18732;SDS011;9495;51.210;2.934;2023-07-28T09:53:07;4.90;;;1.90;;
18732;SDS011;9495;51.210;2.934;2023-07-28T09:55:38;1.30;;;1.20;;
18732;SDS011;9495;51.210;2.934;2023-07-28T09:58:10;5.13;;;1.55;;
18732;SDS011;9495;51.210;2.934;2023-07-28T10:00:44;5.00;;;1.40;;
18732;SDS011;9495;51.210;2.934;2023-07-28T10:03:13;3.38;;;1.38;;
18732;SDS011;9495;51.210;2.934;2023-07-28T10:05:43;2.85;;;1.20;;
18732;SDS011;9495;51.210;2.934;2023-07-28T10:08:12;4.35;;;1.38;;
18732;SDS011;9495;51.210;2.934;2023-07-28T10:10:42;1.67;;;1.20;;
18732;SDS011;9495;51.210;2.934;2023-07-28T10:13:20;1.73;;;1.02;;
18732;SDS011;9495;51.210;2.934;2023-07-28T10:15:49;0.93;;;0.80;;
18732;SDS011;9495;51.210;2.934;2023-07-28T10:18:19;4.80;;;1.20;;
18732;SDS011;9495;51.210;2.934;2023-07-28T10:20:49;1.80;;;1.10;;
18732;SDS011;9495;51.210;2.934;2023-07-28T10:23:19;1.50;;;1.10;;
18732;SDS011;9495;51.210;2.934;2023-07-28T10:25:55;3.42;;;1.30;;
18732;SDS011;9495;51.210;2.934;2023-07-28T10:28:27;1.50;;;1.25;;
18732;SDS011;9495;51.210;2.934;2023-07-28T10:30:58;2.47;;;1.40;;
18732;SDS011;9495;51.210;2.934;2023-07-28T10:33:28;3.47;;;1.42;;
18732;SDS011;9495;51.210;2.934;2023-07-28T10:36:17;4.05;;;1.42;;
18732;SDS011;9495;51.210;2.934;2023-07-28T10:39:24;2.90;;;1.40;;
18732;SDS011;9495;51.210;2.934;2023-07-28T10:42:02;2.40;;;1.60;;
18732;SDS011;9495;51.210;2.934;2023-07-28T10:44:33;4.70;;;1.80;;
18732;SDS011;9495;51.210;2.934;2023-07-28T10:47:07;2.58;;;2.03;;
18732;SDS011;9495;51.210;2.934;2023-07-28T10:49:36;3.88;;;2.53;;
18732;SDS011;9495;51.210;2.934;2023-07-28T10:52:05;2.60;;;2.22;;
18732;SDS011;9495;51.210;2.934;2023-07-28T10:54:33;3.33;;;2.40;;
18732;SDS011;9495;51.210;2.934;2023-07-28T10:57:02;3.97;;;2.40;;
18732;SDS011;9495;51.210;2.934;2023-07-28T10:59:33;6.30;;;2.75;;
18732;SDS011;9495;51.210;2.934;2023-07-28T11:02:03;5.07;;;2.50;;
18732;SDS011;9495;51.210;2.934;2023-07-28T11:04:32;5.25;;;2.15;;
18732;SDS011;9495;51.210;2.934;2023-07-28T11:07:00;4.65;;;1.90;;
18732;SDS011;9495;51.210;2.934;2023-07-28T11:09:33;3.25;;;1.85;;
18732;SDS011;9495;51.210;2.934;2023-07-28T11:12:02;2.70;;;1.70;;
18732;SDS011;9495;51.210;2.934;2023-07-28T11:14:30;4.03;;;1.95;;
18732;SDS011;9495;51.210;2.934;2023-07-28T11:17:01;5.32;;;2.22;;
18732;SDS011;9495;51.210;2.934;2023-07-28T11:19:29;5.38;;;1.90;;
18732;SDS011;9495;51.210;2.934;2023-07-28T11:21:58;2.55;;;1.88;;
18732;SDS011;9495;51.210;2.934;2023-07-28T11:24:26;4.25;;;1.80;;
18732;SDS011;9495;51.210;2.934;2023-07-28T11:26:56;6.60;;;1.67;;
18732;SDS011;9495;51.210;2.934;2023-07-28T11:29:26;2.10;;;1.20;;
18732;SDS011;9495;51.210;2.934;2023-07-28T11:31:55;4.15;;;1.30;;
18732;SDS011;9495;51.210;2.934;2023-07-28T11:34:25;3.00;;;1.30;;
18732;SDS011;9495;51.210;2.934;2023-07-28T11:36:54;3.40;;;1.25;;
18732;SDS011;9495;51.210;2.934;2023-07-28T11:39:23;2.67;;;1.17;;
18732;SDS011;9495;51.210;2.934;2023-07-28T11:41:52;1.85;;;1.13;;
18732;SDS011;9495;51.210;2.934;2023-07-28T11:44:21;1.80;;;1.13;;
18732;SDS011;9495;51.210;2.934;2023-07-28T11:46:51;1.83;;;1.20;;
18732;SDS011;9495;51.210;2.934;2023-07-28T11:49:22;3.25;;;1.40;;
18732;SDS011;9495;51.210;2.934;2023-07-28T11:51:52;4.22;;;1.73;;
18732;SDS011;9495;51.210;2.934;2023-07-28T11:54:25;1.95;;;1.45;;
18732;SDS011;9495;51.210;2.934;2023-07-28T11:56:54;4.50;;;1.65;;
18732;SDS011;9495;51.210;2.934;2023-07-28T11:59:24;2.35;;;1.50;;
18732;SDS011;9495;51.210;2.934;2023-07-28T12:01:53;4.93;;;1.70;;
18732;SDS011;9495;51.210;2.934;2023-07-28T12:04:25;5.70;;;1.80;;
18732;SDS011;9495;51.210;2.934;2023-07-28T12:07:07;8.38;;;1.90;;
18732;SDS011;9495;51.210;2.934;2023-07-28T12:09:47;3.95;;;1.70;;
18732;SDS011;9495;51.210;2.934;2023-07-28T12:12:29;6.20;;;1.88;;
18732;SDS011;9495;51.210;2.934;2023-07-28T12:15:17;6.10;;;1.88;;
18732;SDS011;9495;51.210;2.934;2023-07-28T12:18:08;9.90;;;2.42;;
18732;SDS011;9495;51.210;2.934;2023-07-28T12:20:41;10.20;;;2.65;;
18732;SDS011;9495;51.210;2.934;2023-07-28T12:23:15;5.80;;;1.90;;
18732;SDS011;9495;51.210;2.934;2023-07-28T12:25:48;5.55;;;2.33;;
18732;SDS011;9495;51.210;2.934;2023-07-28T12:28:17;11.07;;;2.67;;
18732;SDS011;9495;51.210;2.934;2023-07-28T12:30:46;8.13;;;2.25;;
18732;SDS011;9495;51.210;2.934;2023-07-28T12:33:18;12.05;;;2.20;;
18732;SDS011;9495;51.210;2.934;2023-07-28T12:35:48;4.53;;;1.70;;
18732;SDS011;9495;51.210;2.934;2023-07-28T12:38:19;6.93;;;2.17;;
18732;SDS011;9495;51.210;2.934;2023-07-28T12:40:51;10.10;;;2.17;;
18732;SDS011;9495;51.210;2.934;2023-07-28T12:43:23;4.40;;;1.98;;
18732;SDS011;9495;51.210;2.934;2023-07-28T12:45:55;8.88;;;2.35;;
18732;SDS011;9495;51.210;2.934;2023-07-28T12:48:27;8.65;;;2.30;;
18732;SDS011;9495;51.210;2.934;2023-07-28T12:50:55;6.35;;;1.80;;
18732;SDS011;9495;51.210;2.934;2023-07-28T12:53:28;5.85;;;1.80;;
18732;SDS011;9495;51.210;2.934;2023-07-28T12:55:57;5.00;;;1.77;;
18732;SDS011;9495;51.210;2.934;2023-07-28T12:58:27;6.40;;;2.28;;
18732;SDS011;9495;51.210;2.934;2023-07-28T13:01:00;6.32;;;1.58;;
18732;SDS011;9495;51.210;2.934;2023-07-28T13:03:31;6.43;;;2.30;;
18732;SDS011;9495;51.210;2.934;2023-07-28T13:06:00;9.20;;;1.92;;
18732;SDS011;9495;51.210;2.934;2023-07-28T13:08:30;5.53;;;1.88;;
18732;SDS011;9495;51.210;2.934;2023-07-28T13:11:02;3.45;;;1.67;;
18732;SDS011;9495;51.210;2.934;2023-07-28T13:13:33;4.93;;;1.88;;
18732;SDS011;9495;51.210;2.934;2023-07-28T13:16:05;4.65;;;1.65;;
18732;SDS011;9495;51.210;2.934;2023-07-28T13:18:38;5.97;;;1.70;;
18732;SDS011;9495;51.210;2.934;2023-07-28T13:21:07;3.35;;;1.85;;
18732;SDS011;9495;51.210;2.934;2023-07-28T13:23:38;2.05;;;1.58;;
18732;SDS011;9495;51.210;2.934;2023-07-28T13:26:07;6.40;;;1.80;;
18732;SDS011;9495;51.210;2.934;2023-07-28T13:28:36;5.93;;;1.83;;
18732;SDS011;9495;51.210;2.934;2023-07-28T13:31:06;4.38;;;1.40;;
18732;SDS011;9495;51.210;2.934;2023-07-28T13:33:35;2.92;;;1.50;;
18732;SDS011;9495;51.210;2.934;2023-07-28T13:36:04;6.65;;;2.20;;
18732;SDS011;9495;51.210;2.934;2023-07-28T13:38:34;3.30;;;1.92;;
18732;SDS011;9495;51.210;2.934;2023-07-28T13:41:04;5.78;;;1.73;;
18732;SDS011;9495;51.210;2.934;2023-07-28T13:43:34;8.82;;;1.60;;
18732;SDS011;9495;51.210;2.934;2023-07-28T13:46:04;3.95;;;1.80;;
18732;SDS011;9495;51.210;2.934;2023-07-28T13:48:36;6.10;;;1.90;;
18732;SDS011;9495;51.210;2.934;2023-07-28T13:51:08;4.10;;;1.55;;
18732;SDS011;9495;51.210;2.934;2023-07-28T13:53:45;8.00;;;2.10;;
18732;SDS011;9495;51.210;2.934;2023-07-28T13:56:34;5.13;;;2.13;;
18732;SDS011;9495;51.210;2.934;2023-07-28T13:59:04;5.90;;;1.90;;
18732;SDS011;9495;51.210;2.934;2023-07-28T14:01:32;4.53;;;2.10;;
18732;SDS011;9495;51.210;2.934;2023-07-28T14:04:01;9.95;;;2.40;;
18732;SDS011;9495;51.210;2.934;2023-07-28T14:06:30;6.30;;;1.85;;
18732;SDS011;9495;51.210;2.934;2023-07-28T14:09:01;4.68;;;1.70;;
18732;SDS011;9495;51.210;2.934;2023-07-28T14:11:29;5.10;;;1.77;;
18732;SDS011;9495;51.210;2.934;2023-07-28T14:13:59;4.40;;;1.88;;
18732;SDS011;9495;51.210;2.934;2023-07-28T14:16:28;3.13;;;1.75;;
18732;SDS011;9495;51.210;2.934;2023-07-28T14:18:56;3.63;;;1.60;;
18732;SDS011;9495;51.210;2.934;2023-07-28T14:21:25;4.72;;;1.55;;
18732;SDS011;9495;51.210;2.934;2023-07-28T14:23:53;5.32;;;1.92;;
18732;SDS011;9495;51.210;2.934;2023-07-28T14:26:22;6.47;;;1.60;;
18732;SDS011;9495;51.210;2.934;2023-07-28T14:28:50;4.47;;;2.08;;
18732;SDS011;9495;51.210;2.934;2023-07-28T14:31:20;4.15;;;1.58;;
18732;SDS011;9495;51.210;2.934;2023-07-28T14:33:49;4.75;;;1.80;;
18732;SDS011;9495;51.210;2.934;2023-07-28T14:36:18;8.10;;;1.73;;
18732;SDS011;9495;51.210;2.934;2023-07-28T14:38:47;7.15;;;1.75;;
18732;SDS011;9495;51.210;2.934;2023-07-28T14:41:15;4.97;;;1.73;;
18732;SDS011;9495;51.210;2.934;2023-07-28T14:43:44;3.88;;;1.70;;
18732;SDS011;9495;51.210;2.934;2023-07-28T14:46:13;3.65;;;1.48;;
18732;SDS011;9495;51.210;2.934;2023-07-28T14:48:43;4.57;;;1.38;;
18732;SDS011;9495;51.210;2.934;2023-07-28T14:51:11;4.82;;;1.77;;
18732;SDS011;9495;51.210;2.934;2023-07-28T14:53:39;5.97;;;1.90;;
18732;SDS011;9495;51.210;2.934;2023-07-28T14:56:08;5.32;;;1.73;;
18732;SDS011;9495;51.210;2.934;2023-07-28T14:58:37;3.97;;;1.45;;
18732;SDS011;9495;51.210;2.934;2023-07-28T15:01:07;6.55;;;1.73;;
18732;SDS011;9495;51.210;2.934;2023-07-28T15:03:37;5.53;;;1.30;;
18732;SDS011;9495;51.210;2.934;2023-07-28T15:06:08;6.28;;;1.67;;